Startpagina
METAR-TAF:

METAR-TAF

Vliegvelden :

Pohnpei, Micronesië

breedte: 06-59N, lengte: 158-12E, hoogte: 2 m

Actueel weer

Dit bericht is 5 uur en het 52 minuten geleden gemaakt, om 03:50 UTC
Wind 6 kt uit het noordwesten
Temperatuur 31°C
Vochtigheid 71%
Druk 1008 hPa
Zicht: 24.1 km
Gebroken wolken op 1800 ft
Geheel bewolkt op 30000 ft

METAR: PTPN 190350Z 31006KT 15SM BKN018 OVC300 31/25 A2977 RMK LAST

Tijdstip: 20:42 (09:42 UTC)

Verwachting

Dit bericht is 6 uur en het 29 minuten geleden gemaakt, om 03:13 UTC
Verwachting geldig van 19 om 03 UTC tot 19 om 24 UTC
Wind 7 kt uit het westnoordwesten
Zicht: 10 km
Verspreide wolken op 1800 ft
Gebroken wolken op 13000 ft
buien in de omgeving
Tijdelijke
van 19 om 03 UTC tot 19 om 07 UTC
Gebroken wolken op 1800 ft
Gebroken wolken op 13000 ft

TAF: PTPN 190313Z 1903/1924 29007KT P6SM VCSH SCT018 BKN130 TEMPO 1903/1907 BKN018 BKN130

Waarnemingen en weersverwachtingen van meer dan 4000 vliegvelden (METAR en TAF).

De beschikbare stations zijn de gele en rode punten op de kaart.

Ga met uw muis naar het station om de naam te zien.

Klik dan om waarnemingen en weersverwachtingen te zien.

kaart wijzigen: klik op de groene knoppen met een zwart kruis om in te zoomen, op de groene knop met een streepje om uit te zoomen of op de groene pijlen voor aangrenzende kaarten.


METAR-TAF: